Time;durP1;ratioP1;P1;durP2;ratioP2;P2;SDS_P1;SDS_P2;PMS_P1;PMS_P2;Temp;Humidity;BMP_temperature;BMP_pressure;BME280_temperature;BME280_humidity;BME280_pressure;Samples;Min_cycle;Max_cycle;Signal;HPM_P1;HPM_P2
2023/03/01 00:02:13;;;;;;;5.72;3.88;;;27.10;99.90;;;;;;5006867;28;20202;-76
2023/03/01 00:04:44;;;;;;;7.78;3.88;;;27.20;99.90;;;;;;5013530;28;20194;-76
2023/03/01 00:07:17;;;;;;;7.43;4.25;;;27.30;99.90;;;;;;5012647;28;20322;-77
2023/03/01 00:09:49;;;;;;;11.52;4.50;;;27.40;99.90;;;;;;5011846;28;20207;-76
2023/03/01 00:12:20;;;;;;;5.28;4.07;;;27.40;99.90;;;;;;5013141;28;20578;-78
2023/03/01 00:14:51;;;;;;;8.48;3.88;;;27.50;99.90;;;;;;5011949;28;20191;-77
2023/03/01 00:17:22;;;;;;;6.07;4.00;;;27.50;99.90;;;;;;5011596;28;20654;-77
2023/03/01 00:19:53;;;;;;;7.85;4.40;;;27.60;99.90;;;;;;5001896;28;20198;-77
2023/03/01 00:22:26;;;;;;;5.53;3.60;;;27.70;99.90;;;;;;5009877;28;20190;-79
2023/03/01 00:24:57;;;;;;;5.03;3.20;;;27.50;99.90;;;;;;5008308;28;20673;-79
2023/03/01 00:27:28;;;;;;;5.90;3.47;;;27.50;99.90;;;;;;5013382;28;20226;-78
2023/03/01 00:29:59;;;;;;;6.63;3.20;;;27.60;99.90;;;;;;5013105;28;20559;-79
2023/03/01 00:32:30;;;;;;;8.27;3.90;;;27.60;99.90;;;;;;5005685;28;20234;-80
2023/03/01 00:35:01;;;;;;;7.10;3.15;;;27.70;99.90;;;;;;4993870;28;20616;-78
2023/03/01 00:37:34;;;;;;;5.32;3.30;;;27.80;99.90;;;;;;4993524;28;20632;-78
2023/03/01 00:40:06;;;;;;;3.88;3.17;;;28.00;99.90;;;;;;4996254;28;20656;-79
2023/03/01 00:42:38;;;;;;;5.45;3.13;;;28.10;99.90;;;;;;5012973;28;20256;-79
2023/03/01 00:45:09;;;;;;;5.28;3.00;;;28.10;99.90;;;;;;5013169;28;20195;-80
2023/03/01 00:47:40;;;;;;;7.68;3.10;;;28.20;99.90;;;;;;5013060;28;20187;-80
2023/03/01 00:50:13;;;;;;;5.20;3.13;;;28.20;99.90;;;;;;5006495;28;20202;-80
2023/03/01 00:52:46;;;;;;;6.60;3.08;;;28.20;99.90;;;;;;5003886;28;20303;-80
2023/03/01 00:55:17;;;;;;;11.07;3.10;;;28.00;99.90;;;;;;5006685;28;20198;-84
2023/03/01 00:57:48;;;;;;;6.93;2.08;;;28.10;99.90;;;;;;5005437;28;20237;-79
2023/03/01 01:00:19;;;;;;;7.18;2.00;;;28.10;99.90;;;;;;5005812;28;20199;-78
2023/03/01 01:02:51;;;;;;;4.18;1.85;;;28.20;99.90;;;;;;5005660;28;20206;-79
2023/03/01 01:05:22;;;;;;;6.10;2.20;;;28.30;99.90;;;;;;5012891;28;20203;-78
2023/03/01 01:07:55;;;;;;;5.45;1.95;;;28.30;99.90;;;;;;5004602;28;20203;-79
2023/03/01 01:10:29;;;;;;;3.92;2.00;;;28.20;99.90;;;;;;4999393;28;20195;-79
2023/03/01 01:13:00;;;;;;;3.05;1.77;;;28.20;99.90;;;;;;5008792;28;20589;-77
2023/03/01 01:15:31;;;;;;;6.32;1.85;;;28.10;99.90;;;;;;5013101;28;20198;-79
2023/03/01 01:18:02;;;;;;;4.50;2.03;;;28.10;99.90;;;;;;5012636;28;20203;-80
2023/03/01 01:20:33;;;;;;;4.28;2.00;;;28.10;99.90;;;;;;5014287;28;20203;-79
2023/03/01 01:23:09;;;;;;;4.82;1.90;;;28.10;99.90;;;;;;5014787;28;20206;-82
2023/03/01 01:25:40;;;;;;;4.55;1.77;;;28.00;99.90;;;;;;5015493;28;20202;-81
2023/03/01 01:28:11;;;;;;;5.40;1.70;;;27.90;99.90;;;;;;5014560;28;20222;-81
2023/03/01 01:30:42;;;;;;;4.10;1.90;;;28.00;99.90;;;;;;5014898;28;20199;-85
2023/03/01 01:33:13;;;;;;;7.63;1.60;;;27.90;99.90;;;;;;5014487;28;20221;-79
2023/03/01 01:35:47;;;;;;;4.00;1.85;;;27.70;99.90;;;;;;5014327;28;20207;-81
2023/03/01 01:38:21;;;;;;;3.20;1.40;;;27.50;99.90;;;;;;5013830;28;20199;-81
2023/03/01 01:40:53;;;;;;;4.50;1.23;;;27.20;99.90;;;;;;5016161;28;20249;-83
2023/03/01 01:43:27;;;;;;;4.85;1.50;;;27.10;99.90;;;;;;5011199;28;20207;-80
2023/03/01 01:46:01;;;;;;;3.35;1.27;;;27.10;99.90;;;;;;5013580;28;20685;-79
2023/03/01 01:48:40;;;;;;;3.97;1.38;;;27.10;99.90;;;;;;5008541;28;20272;-80
2023/03/01 01:51:16;;;;;;;6.40;1.35;;;27.30;99.90;;;;;;5013943;28;20199;-79
2023/03/01 01:53:52;;;;;;;4.60;1.40;;;27.60;99.90;;;;;;5010226;28;20218;-79
2023/03/01 01:56:27;;;;;;;4.75;1.30;;;27.80;99.90;;;;;;5012326;28;20247;-78
2023/03/01 01:58:58;;;;;;;2.38;1.23;;;28.00;99.90;;;;;;5007795;28;20230;-81
2023/03/01 02:01:31;;;;;;;2.55;1.33;;;28.10;99.90;;;;;;5015488;28;20191;-79
2023/03/01 02:04:04;;;;;;;3.08;1.35;;;28.20;99.90;;;;;;5013286;28;20203;-78
2023/03/01 02:06:40;;;;;;;2.92;1.33;;;28.30;99.90;;;;;;5012283;28;20272;-79
2023/03/01 02:09:16;;;;;;;4.43;1.52;;;28.40;99.90;;;;;;5014814;28;20229;-79
2023/03/01 02:11:47;;;;;;;3.03;1.30;;;28.40;99.90;;;;;;5012734;28;20205;-80
2023/03/01 02:14:19;;;;;;;5.57;1.50;;;28.30;99.90;;;;;;5011242;28;20717;-79
2023/03/01 02:16:50;;;;;;;5.00;1.40;;;28.30;99.90;;;;;;5011381;28;20198;-79
2023/03/01 02:19:31;;;;;;;4.88;1.33;;;28.30;99.90;;;;;;5008873;28;20195;-79
2023/03/01 02:22:13;;;;;;;3.90;1.30;;;28.30;99.90;;;;;;5012110;28;20278;-78
2023/03/01 02:24:56;;;;;;;3.35;1.38;;;28.40;99.90;;;;;;5008757;28;20203;-82
2023/03/01 02:27:36;;;;;;;2.80;1.40;;;28.20;99.90;;;;;;5008406;28;20679;-78
2023/03/01 02:30:12;;;;;;;4.93;1.33;;;28.20;99.90;;;;;;5005202;28;20226;-80
2023/03/01 02:32:42;;;;;;;1.80;1.30;;;28.10;99.90;;;;;;5012805;28;20194;-79
2023/03/01 02:35:15;;;;;;;3.38;1.48;;;28.10;99.90;;;;;;5013099;28;20195;-77
2023/03/01 02:37:47;;;;;;;1.17;1.02;;;28.20;99.90;;;;;;5010617;28;20210;-78
2023/03/01 02:40:22;;;;;;;5.93;1.50;;;28.10;99.90;;;;;;5011743;28;20199;-78
2023/03/01 02:42:57;;;;;;;3.58;1.40;;;27.90;99.90;;;;;;5005258;28;20205;-80
2023/03/01 02:45:32;;;;;;;2.75;1.20;;;27.90;99.90;;;;;;5012099;28;20203;-82
2023/03/01 02:48:03;;;;;;;1.20;1.10;;;27.90;99.90;;;;;;5013389;28;20194;-86
2023/03/01 02:50:58;;;;;;;1.83;1.30;;;27.80;99.90;;;;;;5013197;28;20203;-81
2023/03/01 02:53:39;;;;;;;2.50;1.20;;;27.90;99.90;;;;;;5012809;28;20579;-85
2023/03/01 02:56:12;;;;;;;2.75;1.20;;;28.10;99.90;;;;;;5014111;28;20290;-79
2023/03/01 02:58:50;;;;;;;1.38;1.10;;;28.30;99.90;;;;;;5009480;28;20628;-80
2023/03/01 03:01:36;;;;;;;4.68;1.25;;;28.50;99.90;;;;;;4998474;28;20195;-87
2023/03/01 03:04:09;;;;;;;1.80;1.25;;;28.70;99.90;;;;;;5006237;28;20195;-79
2023/03/01 03:06:41;;;;;;;2.35;1.10;;;28.80;99.90;;;;;;5011917;28;20237;-79
2023/03/01 03:09:12;;;;;;;3.28;1.30;;;28.80;99.90;;;;;;5003746;28;20195;-77
2023/03/01 03:11:43;;;;;;;3.65;1.00;;;28.60;99.90;;;;;;5008216;28;20203;-80
2023/03/01 03:14:16;;;;;;;2.10;1.00;;;28.60;99.90;;;;;;5007388;28;20219;-79
2023/03/01 03:16:51;;;;;;;1.25;1.00;;;28.70;99.90;;;;;;5010054;28;20685;-81
2023/03/01 03:19:23;;;;;;;2.67;1.33;;;28.70;99.90;;;;;;5011383;28;20851;-79
2023/03/01 03:21:54;;;;;;;2.05;1.00;;;28.60;99.90;;;;;;5011972;28;20198;-82
2023/03/01 03:24:25;;;;;;;4.03;1.13;;;28.20;99.90;;;;;;5006866;28;20195;-78
2023/03/01 03:26:56;;;;;;;3.15;1.20;;;28.00;99.90;;;;;;5006721;28;20230;-79
2023/03/01 03:29:27;;;;;;;4.22;1.20;;;27.90;99.90;;;;;;5008269;28;20218;-78
2023/03/01 03:32:00;;;;;;;2.88;1.00;;;27.90;99.90;;;;;;5010147;28;20202;-80
2023/03/01 03:34:31;;;;;;;4.68;0.93;;;27.90;99.90;;;;;;5002586;28;20216;-79
2023/03/01 03:37:02;;;;;;;5.18;0.93;;;27.90;99.90;;;;;;5011879;28;20195;-79
2023/03/01 03:39:34;;;;;;;4.38;1.13;;;27.80;99.90;;;;;;5006597;28;20195;-79
2023/03/01 03:42:05;;;;;;;3.20;0.90;;;27.50;99.90;;;;;;5006970;28;20242;-81
2023/03/01 03:44:37;;;;;;;6.30;1.10;;;27.40;99.90;;;;;;5012033;28;20206;-77
2023/03/01 03:47:10;;;;;;;3.30;0.98;;;27.40;99.90;;;;;;5008999;28;20563;-80
2023/03/01 03:49:41;;;;;;;5.25;0.90;;;27.20;99.90;;;;;;5009867;28;20202;-77
2023/03/01 03:52:14;;;;;;;2.47;0.70;;;27.10;99.90;;;;;;5011292;28;20203;-79
2023/03/01 03:54:46;;;;;;;2.08;0.80;;;27.00;99.90;;;;;;5005919;28;20250;-78
2023/03/01 03:57:17;;;;;;;3.95;0.80;;;26.90;99.90;;;;;;4996145;28;20221;-77
2023/03/01 03:59:48;;;;;;;2.28;0.77;;;26.80;99.90;;;;;;5010986;28;20673;-79
2023/03/01 04:02:22;;;;;;;2.05;0.55;;;26.90;99.90;;;;;;5002661;28;20198;-78
2023/03/01 04:04:53;;;;;;;2.30;0.45;;;26.70;99.90;;;;;;5007538;28;20605;-79
2023/03/01 04:07:24;;;;;;;2.10;0.50;;;26.60;99.90;;;;;;5007980;28;20191;-76
2023/03/01 04:09:55;;;;;;;0.90;0.55;;;26.60;99.90;;;;;;5004215;28;20207;-80
2023/03/01 04:12:28;;;;;;;2.35;0.50;;;26.70;99.90;;;;;;5011886;28;20234;-77
2023/03/01 04:15:00;;;;;;;2.78;0.70;;;26.70;99.90;;;;;;4996667;28;20222;-77
2023/03/01 04:17:35;;;;;;;2.97;0.50;;;26.80;99.90;;;;;;5005453;28;20195;-79
2023/03/01 04:20:07;;;;;;;2.13;0.30;;;26.80;99.90;;;;;;5010715;28;20202;-78
2023/03/01 04:22:38;;;;;;;2.30;0.50;;;26.70;99.90;;;;;;5008780;28;20230;-78
2023/03/01 04:25:13;;;;;;;3.20;0.38;;;26.70;99.90;;;;;;5006993;28;20214;-77
2023/03/01 04:27:45;;;;;;;2.60;0.65;;;26.80;99.90;;;;;;5010670;28;20222;-78
2023/03/01 04:30:16;;;;;;;2.85;0.47;;;26.80;99.90;;;;;;5003163;28;20202;-79
2023/03/01 04:32:50;;;;;;;1.83;0.50;;;26.80;99.90;;;;;;5009240;28;20231;-77
2023/03/01 04:35:21;;;;;;;3.70;0.75;;;26.70;99.90;;;;;;5002762;28;20281;-77
2023/03/01 04:37:52;;;;;;;4.47;0.55;;;26.70;99.90;;;;;;5005711;28;20214;-78
2023/03/01 04:40:23;;;;;;;2.97;0.60;;;26.70;99.90;;;;;;5007227;28;20202;-80
2023/03/01 04:42:54;;;;;;;2.97;0.80;;;26.60;99.90;;;;;;5011220;28;20214;-78
2023/03/01 04:45:26;;;;;;;2.08;0.70;;;26.50;99.90;;;;;;5009133;28;20237;-77
2023/03/01 04:48:00;;;;;;;2.38;0.70;;;26.50;99.90;;;;;;5013467;28;20207;-76
2023/03/01 04:50:32;;;;;;;2.25;0.73;;;26.50;99.90;;;;;;5008658;28;20202;-79
2023/03/01 04:53:03;;;;;;;3.70;0.80;;;26.40;99.90;;;;;;5006263;28;20282;-80
2023/03/01 04:55:34;;;;;;;1.80;0.80;;;26.30;99.90;;;;;;5015424;28;20214;-78
2023/03/01 04:58:05;;;;;;;6.05;0.75;;;26.20;99.90;;;;;;5014536;28;20698;-78
2023/03/01 05:00:36;;;;;;;3.28;0.77;;;26.30;99.90;;;;;;5015205;28;20195;-77
2023/03/01 05:03:10;;;;;;;1.90;0.77;;;26.40;99.90;;;;;;5013191;28;20674;-77
2023/03/01 05:05:44;;;;;;;2.33;0.90;;;26.50;99.90;;;;;;5006852;28;20293;-80
2023/03/01 05:08:17;;;;;;;3.63;0.93;;;26.30;99.90;;;;;;5005096;28;20226;-76
2023/03/01 05:10:52;;;;;;;4.05;0.95;;;26.20;99.90;;;;;;5009092;28;20329;-79
2023/03/01 05:13:23;;;;;;;4.18;0.90;;;26.00;99.90;;;;;;5011945;28;20654;-76
2023/03/01 05:15:59;;;;;;;4.72;0.90;;;25.90;99.90;;;;;;5013402;28;20250;-77
2023/03/01 05:18:34;;;;;;;2.65;0.68;;;26.00;99.90;;;;;;5011492;28;20194;-77
2023/03/01 05:21:08;;;;;;;2.72;0.90;;;25.90;99.90;;;;;;5003844;28;20229;-78
2023/03/01 05:23:39;;;;;;;3.47;0.88;;;25.80;99.90;;;;;;5008948;28;20202;-79
2023/03/01 05:26:12;;;;;;;4.25;1.10;;;25.90;99.90;;;;;;5015856;28;20195;-77
2023/03/01 05:28:43;;;;;;;6.22;1.05;;;26.00;99.90;;;;;;5011347;28;20322;-81
2023/03/01 05:31:14;;;;;;;3.72;0.80;;;26.00;99.90;;;;;;5007335;28;20205;-76
2023/03/01 05:33:48;;;;;;;3.80;0.82;;;25.90;99.90;;;;;;5004060;28;20215;-79
2023/03/01 05:36:20;;;;;;;7.30;1.20;;;25.90;99.90;;;;;;5014714;28;20206;-78
2023/03/01 05:38:52;;;;;;;4.95;1.10;;;25.80;99.90;;;;;;5007602;28;20586;-79
2023/03/01 05:41:24;;;;;;;5.35;0.95;;;25.60;99.90;;;;;;4998292;28;20203;-76
2023/03/01 05:43:55;;;;;;;5.43;0.93;;;25.50;99.90;;;;;;5011554;28;20282;-79
2023/03/01 05:46:26;;;;;;;3.20;1.10;;;25.30;99.90;;;;;;5029246;28;20561;-79
2023/03/01 05:49:00;;;;;;;5.35;1.27;;;25.20;99.90;;;;;;5010213;28;20206;-78
2023/03/01 05:51:34;;;;;;;8.65;1.38;;;25.30;99.90;;;;;;5012733;28;20206;-77
2023/03/01 05:54:06;;;;;;;3.65;0.98;;;25.40;99.90;;;;;;5012739;28;20225;-77
2023/03/01 05:56:38;;;;;;;4.32;1.05;;;25.40;99.90;;;;;;5011660;28;20205;-78
2023/03/01 05:59:11;;;;;;;4.72;1.20;;;25.40;99.90;;;;;;4998182;28;20619;-75
2023/03/01 06:01:42;;;;;;;5.05;1.10;;;25.30;99.90;;;;;;5013599;28;20225;-80
2023/03/01 06:04:17;;;;;;;6.65;1.25;;;25.20;99.90;;;;;;5014129;28;20306;-77
2023/03/01 06:06:50;;;;;;;6.38;1.48;;;25.20;99.90;;;;;;5006655;28;20565;-74
2023/03/01 06:09:22;;;;;;;5.45;1.52;;;25.20;99.90;;;;;;5013550;28;20205;-78
2023/03/01 06:11:53;;;;;;;5.85;1.40;;;25.10;99.90;;;;;;5015397;28;20199;-79
2023/03/01 06:14:24;;;;;;;5.25;1.30;;;25.00;99.90;;;;;;5013270;28;20219;-78
2023/03/01 06:16:55;;;;;;;9.05;1.55;;;24.90;99.90;;;;;;5012678;28;20581;-76
2023/03/01 06:19:28;;;;;;;4.57;1.23;;;24.80;99.90;;;;;;5010024;28;20658;-78
2023/03/01 06:21:59;;;;;;;8.60;1.50;;;24.80;99.90;;;;;;5015206;28;20195;-79
2023/03/01 06:24:30;;;;;;;8.30;1.50;;;24.80;99.90;;;;;;5012878;28;20206;-78
2023/03/01 06:27:01;;;;;;;7.05;1.33;;;24.70;99.90;;;;;;5013190;28;20230;-76
2023/03/01 06:29:33;;;;;;;12.02;1.73;;;24.70;99.90;;;;;;5013018;28;20203;-76
2023/03/01 06:32:04;;;;;;;7.28;1.55;;;24.60;99.90;;;;;;5000869;28;20198;-77
2023/03/01 06:34:37;;;;;;;6.45;1.50;;;24.70;99.90;;;;;;5015175;28;20218;-81
2023/03/01 06:37:09;;;;;;;6.90;1.48;;;24.80;99.90;;;;;;5013783;28;20647;-77
2023/03/01 06:39:40;;;;;;;9.52;1.50;;;24.80;99.90;;;;;;5014821;28;20199;-75
2023/03/01 06:42:13;;;;;;;8.00;1.98;;;24.70;99.90;;;;;;5013049;28;20199;-78
2023/03/01 06:44:46;;;;;;;9.38;1.77;;;24.60;99.90;;;;;;5013033;28;20207;-77
2023/03/01 06:47:17;;;;;;;6.28;1.35;;;24.50;99.90;;;;;;5014464;28;20212;-81
2023/03/01 06:49:50;;;;;;;8.32;1.50;;;24.50;99.90;;;;;;5014630;28;20655;-77
2023/03/01 06:52:21;;;;;;;7.97;1.52;;;24.40;99.90;;;;;;5013004;28;20231;-76
2023/03/01 06:54:52;;;;;;;10.18;1.50;;;24.30;99.90;;;;;;5014558;28;20235;-77
2023/03/01 06:57:23;;;;;;;6.03;1.58;;;24.30;99.90;;;;;;5013868;28;20198;-76
2023/03/01 06:59:55;;;;;;;8.50;1.60;;;24.20;99.90;;;;;;5012378;28;20210;-76
2023/03/01 07:02:27;;;;;;;10.18;1.60;;;24.10;99.90;;;;;;5004412;28;20199;-78
2023/03/01 07:05:00;;;;;;;9.35;1.83;;;24.10;99.90;;;;;;5001044;28;20196;-77
2023/03/01 07:07:31;;;;;;;10.73;1.60;;;24.10;99.90;;;;;;5011752;28;20203;-76
2023/03/01 07:10:02;;;;;;;10.20;1.92;;;24.10;99.90;;;;;;5013432;28;20206;-76
2023/03/01 07:12:33;;;;;;;8.60;1.67;;;24.10;99.90;;;;;;5014104;28;20203;-76
2023/03/01 07:15:04;;;;;;;8.95;1.80;;;24.10;99.90;;;;;;5013253;28;20237;-76
2023/03/01 07:17:35;;;;;;;9.52;2.03;;;24.10;99.90;;;;;;5011868;28;20206;-79
2023/03/01 07:20:08;;;;;;;8.32;1.95;;;24.10;99.90;;;;;;5010756;28;20203;-76
2023/03/01 07:22:41;;;;;;;6.95;1.67;;;24.00;99.90;;;;;;5000930;28;20210;-80
2023/03/01 07:25:14;;;;;;;15.63;1.95;;;24.00;99.90;;;;;;5010788;28;20546;-78
2023/03/01 07:27:46;;;;;;;7.72;1.80;;;24.00;99.90;;;;;;5010890;28;20223;-78
2023/03/01 07:30:17;;;;;;;10.43;1.90;;;24.00;99.90;;;;;;5012936;28;20198;-77
2023/03/01 07:32:48;;;;;;;10.50;1.92;;;23.90;99.90;;;;;;5009456;28;20192;-76
2023/03/01 07:35:21;;;;;;;9.20;2.00;;;23.90;99.90;;;;;;5006949;28;20215;-78
2023/03/01 07:37:52;;;;;;;9.25;1.98;;;23.80;99.90;;;;;;5013158;28;20210;-76
2023/03/01 07:40:24;;;;;;;9.80;2.30;;;23.80;99.90;;;;;;5012475;28;20626;-76
2023/03/01 07:42:59;;;;;;;8.73;1.80;;;23.80;99.90;;;;;;5012020;28;20195;-76
2023/03/01 07:45:31;;;;;;;7.40;1.80;;;23.80;99.90;;;;;;5013168;28;20198;-78
2023/03/01 07:48:02;;;;;;;10.95;1.90;;;23.80;99.90;;;;;;5012762;28;20214;-79
2023/03/01 07:50:35;;;;;;;7.88;1.75;;;23.80;99.90;;;;;;5012663;28;20199;-76
2023/03/01 07:53:06;;;;;;;10.82;1.80;;;23.70;99.90;;;;;;5013030;28;20203;-77
2023/03/01 07:55:37;;;;;;;9.45;1.60;;;23.70;99.90;;;;;;5011636;28;20226;-80
2023/03/01 07:58:08;;;;;;;9.23;1.80;;;23.60;99.90;;;;;;5012572;28;20235;-77
2023/03/01 08:00:39;;;;;;;9.50;1.63;;;23.60;99.90;;;;;;5012491;28;20210;-77
2023/03/01 08:03:10;;;;;;;11.25;1.95;;;23.60;99.90;;;;;;5000801;28;20219;-77
2023/03/01 08:05:43;;;;;;;9.45;1.67;;;23.60;99.90;;;;;;4999611;28;20542;-77
2023/03/01 08:08:14;;;;;;;14.73;2.22;;;23.50;99.90;;;;;;5007968;28;20677;-82
2023/03/01 08:10:45;;;;;;;9.35;2.03;;;23.40;99.90;;;;;;5012058;28;20199;-79
2023/03/01 08:13:22;;;;;;;12.02;2.10;;;23.50;99.90;;;;;;5009860;28;20202;-77
2023/03/01 08:15:53;;;;;;;10.25;1.80;;;23.50;99.90;;;;;;5005294;28;20309;-77
2023/03/01 08:18:25;;;;;;;11.55;1.98;;;23.40;99.90;;;;;;5009507;28;20199;-78
2023/03/01 08:20:58;;;;;;;10.63;1.77;;;23.40;99.90;;;;;;5011560;28;20197;-75
2023/03/01 08:23:29;;;;;;;11.15;2.40;;;23.40;99.90;;;;;;5014244;28;20222;-82
2023/03/01 08:26:08;;;;;;;8.57;2.05;;;23.30;99.90;;;;;;5013512;28;20210;-80
2023/03/01 08:28:40;;;;;;;7.40;1.70;;;23.30;99.90;;;;;;5012838;28;20226;-77
2023/03/01 08:31:19;;;;;;;10.73;2.33;;;23.30;99.90;;;;;;5007493;28;20210;-78
2023/03/01 08:33:54;;;;;;;10.38;2.10;;;23.30;99.90;;;;;;5014845;28;20199;-78
2023/03/01 08:36:29;;;;;;;10.73;2.00;;;23.30;99.90;;;;;;5016902;28;20218;-78
2023/03/01 08:39:00;;;;;;;7.72;2.03;;;23.30;99.90;;;;;;5015543;28;20194;-78
2023/03/01 08:41:31;;;;;;;12.95;2.10;;;23.30;99.90;;;;;;5014777;28;20201;-78
2023/03/01 08:44:04;;;;;;;11.23;1.67;;;23.30;99.90;;;;;;5011665;28;20207;-79
2023/03/01 08:46:36;;;;;;;8.20;1.90;;;23.30;99.90;;;;;;5014960;28;20203;-78
2023/03/01 08:49:08;;;;;;;9.63;1.90;;;23.30;99.90;;;;;;5013636;28;20202;-86
2023/03/01 08:51:42;;;;;;;11.93;2.00;;;23.30;99.90;;;;;;5013658;28;20219;-78
2023/03/01 08:54:15;;;;;;;10.18;1.73;;;23.30;99.90;;;;;;5015208;28;20206;-79
2023/03/01 08:56:47;;;;;;;10.40;2.20;;;23.30;99.90;;;;;;5012053;28;20214;-83
2023/03/01 08:59:19;;;;;;;8.90;2.22;;;23.30;99.90;;;;;;5013451;28;20239;-81
2023/03/01 09:01:50;;;;;;;13.90;2.13;;;23.30;99.90;;;;;;5011922;28;20201;-80
2023/03/01 09:04:21;;;;;;;8.20;1.90;;;23.20;99.90;;;;;;5005578;28;20195;-77
2023/03/01 09:06:54;;;;;;;10.32;2.10;;;23.20;99.90;;;;;;5010593;28;20199;-83
2023/03/01 09:09:25;;;;;;;9.98;2.13;;;23.30;99.90;;;;;;5015265;28;20576;-78
2023/03/01 09:11:56;;;;;;;10.50;1.98;;;23.20;99.90;;;;;;5013446;28;20730;-78
2023/03/01 09:14:28;;;;;;;11.38;2.33;;;23.30;99.90;;;;;;5013816;28;20195;-77
2023/03/01 09:17:02;;;;;;;10.25;2.08;;;23.20;99.90;;;;;;5002396;28;20199;-77
2023/03/01 09:19:33;;;;;;;10.10;2.08;;;23.20;99.90;;;;;;5013830;28;20252;-78
2023/03/01 09:22:10;;;;;;;7.43;1.70;;;23.30;99.90;;;;;;5012063;28;20650;-87
2023/03/01 09:24:41;;;;;;;7.38;2.00;;;23.20;99.90;;;;;;5015977;28;20646;-80
2023/03/01 09:27:12;;;;;;;8.98;1.90;;;23.20;99.90;;;;;;5015468;28;20682;-78
2023/03/01 09:29:43;;;;;;;11.00;1.80;;;23.20;99.90;;;;;;5014830;28;20640;-77
2023/03/01 09:32:14;;;;;;;8.35;2.00;;;23.30;99.90;;;;;;5014216;28;20665;-77
2023/03/01 09:35:04;;;;;;;10.52;1.95;;;23.30;99.90;;;;;;5014348;28;20666;-84
2023/03/01 09:37:38;;;;;;;8.23;2.00;;;23.30;99.90;;;;;;5008651;28;20226;-77
2023/03/01 09:40:15;;;;;;;9.68;2.20;;;23.30;99.90;;;;;;5011299;28;20226;-77
2023/03/01 09:42:55;;;;;;;12.23;2.55;;;23.20;99.90;;;;;;5013463;28;20265;-77
2023/03/01 09:45:35;;;;;;;9.23;1.90;;;23.30;99.90;;;;;;5015122;28;20199;-77
2023/03/01 09:48:13;;;;;;;12.88;2.30;;;23.20;99.90;;;;;;5011705;28;20198;-78
2023/03/01 09:50:46;;;;;;;11.07;2.00;;;23.30;99.90;;;;;;4996982;28;20206;-77
2023/03/01 09:53:21;;;;;;;11.38;2.10;;;23.30;99.90;;;;;;5015588;28;20209;-78
2023/03/01 09:55:57;;;;;;;10.02;2.15;;;23.20;99.90;;;;;;5012851;28;20223;-77
2023/03/01 09:58:42;;;;;;;10.80;2.63;;;23.30;99.90;;;;;;5012492;28;20226;-78
2023/03/01 10:01:34;;;;;;;7.78;1.83;;;23.20;99.90;;;;;;5002334;28;20199;-77
2023/03/01 10:04:30;;;;;;;7.85;1.98;;;23.20;99.90;;;;;;5013379;28;20195;-77
2023/03/01 10:07:19;;;;;;;11.20;2.28;;;23.30;99.90;;;;;;5013309;28;20207;-79
2023/03/01 10:09:52;;;;;;;8.68;2.03;;;23.20;99.90;;;;;;5007398;28;20655;-77
2023/03/01 10:12:27;;;;;;;7.47;1.80;;;23.20;99.90;;;;;;5003495;28;20203;-77
2023/03/01 10:15:05;;;;;;;9.57;2.13;;;23.20;99.90;;;;;;5013230;28;20260;-78
2023/03/01 10:17:40;;;;;;;10.15;2.50;;;23.20;99.90;;;;;;5007341;28;20650;-78
2023/03/01 10:20:23;;;;;;;9.00;2.17;;;23.10;99.90;;;;;;5012320;28;20563;-81
2023/03/01 10:22:55;;;;;;;10.30;2.53;;;23.10;99.90;;;;;;5013653;28;20241;-78
2023/03/01 10:25:44;;;;;;;7.15;2.20;;;23.00;99.90;;;;;;5007040;28;20208;-78
2023/03/01 10:28:20;;;;;;;8.48;2.30;;;23.00;99.90;;;;;;5008103;28;20590;-78
2023/03/01 10:30:51;;;;;;;8.38;2.03;;;22.90;99.90;;;;;;5012328;28;20209;-79
2023/03/01 10:33:26;;;;;;;10.88;2.10;;;22.90;99.90;;;;;;5009840;28;20203;-78
2023/03/01 10:35:57;;;;;;;11.20;2.22;;;22.80;99.90;;;;;;5010043;28;20761;-83
2023/03/01 10:38:29;;;;;;;11.00;2.60;;;22.80;99.90;;;;;;5008525;28;20252;-80
2023/03/01 10:41:08;;;;;;;11.40;2.53;;;22.80;99.90;;;;;;5013138;28;20199;-79
2023/03/01 10:43:48;;;;;;;12.10;1.95;;;22.70;99.90;;;;;;5012472;28;20195;-81
2023/03/01 10:46:31;;;;;;;13.68;2.70;;;22.70;99.90;;;;;;5002503;28;20678;-78
2023/03/01 10:49:18;;;;;;;11.32;2.20;;;22.70;99.90;;;;;;5012169;28;20202;-78
2023/03/01 10:51:50;;;;;;;13.73;2.30;;;22.70;99.90;;;;;;5014650;28;20199;-77
2023/03/01 10:54:23;;;;;;;7.25;2.08;;;22.70;99.90;;;;;;5013781;28;20194;-79
2023/03/01 10:56:58;;;;;;;9.20;2.38;;;22.70;99.90;;;;;;5013737;28;20235;-77
2023/03/01 10:59:33;;;;;;;10.77;2.40;;;22.70;99.90;;;;;;5004801;28;20334;-78
2023/03/01 11:02:32;;;;;;;12.65;2.15;;;22.70;99.90;;;;;;5008041;28;20538;-80
2023/03/01 11:05:12;;;;;;;6.43;2.38;;;22.70;99.90;;;;;;4993938;28;20233;-79
2023/03/01 11:07:52;;;;;;;15.63;2.80;;;22.70;99.90;;;;;;5012746;28;20225;-78
2023/03/01 11:10:25;;;;;;;9.13;2.60;;;22.70;99.90;;;;;;5011251;28;20244;-79
2023/03/01 11:13:10;;;;;;;12.27;2.40;;;22.70;99.90;;;;;;5012664;28;20717;-78
2023/03/01 11:15:42;;;;;;;9.02;2.17;;;22.60;99.90;;;;;;5002090;28;20587;-79
2023/03/01 11:18:24;;;;;;;9.48;2.38;;;22.60;99.90;;;;;;5013513;28;20713;-78
2023/03/01 11:20:57;;;;;;;6.07;1.92;;;22.60;99.90;;;;;;5014052;28;20198;-78
2023/03/01 11:23:30;;;;;;;8.30;2.30;;;22.60;99.90;;;;;;5011794;28;20253;-79
2023/03/01 11:26:07;;;;;;;11.48;2.75;;;22.60;99.90;;;;;;5012057;28;20288;-77
2023/03/01 11:28:43;;;;;;;9.02;2.40;;;22.60;99.90;;;;;;5013038;28;20198;-77
2023/03/01 11:31:16;;;;;;;10.63;2.17;;;22.60;99.90;;;;;;5013231;28;20202;-78
2023/03/01 11:33:51;;;;;;;12.48;2.50;;;22.60;99.90;;;;;;5001834;28;20195;-77
2023/03/01 11:36:31;;;;;;;11.15;2.25;;;22.60;99.90;;;;;;5010862;28;20206;-78
2023/03/01 11:39:13;;;;;;;10.00;2.55;;;22.60;99.90;;;;;;5007892;28;20225;-77
2023/03/01 11:41:45;;;;;;;11.23;2.25;;;22.60;99.90;;;;;;5013172;28;20230;-78
2023/03/01 11:44:22;;;;;;;6.75;2.38;;;22.60;99.90;;;;;;5013492;28;20191;-78
2023/03/01 11:47:17;;;;;;;8.52;2.10;;;22.60;99.90;;;;;;5012596;28;20210;-78
2023/03/01 11:50:14;;;;;;;7.05;2.13;;;22.60;99.90;;;;;;5011466;28;20202;-79
2023/03/01 11:52:57;;;;;;;7.07;1.90;;;22.60;99.90;;;;;;5009350;28;20663;-79
2023/03/01 11:55:39;;;;;;;7.53;1.88;;;22.60;99.90;;;;;;5011375;28;20206;-80
2023/03/01 11:58:29;;;;;;;6.93;2.25;;;22.60;99.90;;;;;;5012848;28;20234;-78
2023/03/01 12:01:26;;;;;;;10.07;2.28;;;22.60;99.90;;;;;;5012257;28;20225;-79
2023/03/01 12:04:23;;;;;;;9.63;2.58;;;22.60;99.90;;;;;;5011771;28;20195;-78
2023/03/01 12:07:02;;;;;;;7.18;2.10;;;22.60;99.90;;;;;;5011734;28;20217;-77
2023/03/01 12:09:48;;;;;;;7.65;2.17;;;22.60;99.90;;;;;;5004268;28;20200;-78
2023/03/01 12:12:41;;;;;;;9.13;1.92;;;22.60;99.90;;;;;;5012314;28;20646;-78
2023/03/01 12:15:52;;;;;;;5.47;2.10;;;22.60;99.90;;;;;;5005762;28;20202;-79
2023/03/01 12:18:59;;;;;;;8.10;2.40;;;22.60;99.90;;;;;;4993633;28;20527;-78
2023/03/01 12:21:43;;;;;;;8.43;2.22;;;22.50;99.90;;;;;;4987110;28;20199;-77
2023/03/01 12:24:40;;;;;;;8.40;2.30;;;22.60;99.90;;;;;;5013484;28;20226;-78
2023/03/01 12:27:33;;;;;;;10.13;2.40;;;22.60;99.90;;;;;;5003179;28;20227;-78
2023/03/01 12:30:18;;;;;;;6.13;2.03;;;22.60;99.90;;;;;;5011479;28;20211;-77
2023/03/01 12:33:02;;;;;;;9.40;2.10;;;22.60;99.90;;;;;;5007926;28;20205;-78
2023/03/01 12:35:54;;;;;;;7.20;2.00;;;22.60;99.90;;;;;;5011834;28;20214;-77
2023/03/01 12:38:39;;;;;;;8.27;2.45;;;22.60;99.90;;;;;;5006439;28;20204;-78
2023/03/01 12:41:38;;;;;;;13.10;2.30;;;22.60;99.90;;;;;;5011090;28;20669;-78
2023/03/01 12:44:26;;;;;;;6.70;2.03;;;22.60;99.90;;;;;;5010782;28;20215;-78
2023/03/01 12:47:12;;;;;;;6.60;1.70;;;22.50;99.90;;;;;;5011163;28;20203;-77
2023/03/01 12:49:48;;;;;;;7.85;2.22;;;22.50;99.90;;;;;;4997594;28;20199;-78
2023/03/01 12:52:25;;;;;;;10.25;2.40;;;22.50;99.90;;;;;;5012007;28;20202;-77
2023/03/01 12:54:59;;;;;;;10.90;2.60;;;22.50;99.90;;;;;;5001983;28;20194;-77
2023/03/01 12:57:36;;;;;;;9.63;2.30;;;22.50;99.90;;;;;;5004794;28;20584;-79
2023/03/01 13:00:22;;;;;;;8.57;1.90;;;22.50;99.90;;;;;;5007288;28;20199;-81
2023/03/01 13:03:00;;;;;;;8.60;2.05;;;22.40;99.90;;;;;;4999459;28;20202;-77
2023/03/01 13:05:43;;;;;;;7.47;2.00;;;22.40;99.90;;;;;;5011343;28;20667;-78
2023/03/01 13:08:22;;;;;;;9.95;2.67;;;22.40;99.90;;;;;;5011635;28;20231;-77
2023/03/01 13:10:59;;;;;;;10.15;2.50;;;22.40;99.90;;;;;;5015616;28;20214;-77
2023/03/01 13:13:31;;;;;;;7.03;2.10;;;22.40;99.90;;;;;;5015815;28;20198;-77
2023/03/01 13:16:36;;;;;;;8.43;2.22;;;22.30;99.90;;;;;;4998530;28;20203;-78
2023/03/01 13:19:17;;;;;;;12.18;2.63;;;22.30;99.90;;;;;;4995677;28;20204;-78
2023/03/01 13:21:49;;;;;;;9.25;2.40;;;22.30;99.90;;;;;;4997147;28;20229;-79
2023/03/01 13:24:35;;;;;;;8.70;2.65;;;22.30;99.90;;;;;;4996867;28;20202;-77
2023/03/01 13:27:32;;;;;;;7.38;2.35;;;22.30;99.90;;;;;;5013161;28;20202;-78